createdAt,value
2018-12-31T00:01:54.634Z,32.23
2018-12-31T00:04:23.204Z,32.87
2018-12-31T00:06:51.784Z,31.43
2018-12-31T00:09:20.344Z,33.33
2018-12-31T00:11:48.909Z,30.70
2018-12-31T00:14:17.491Z,31.80
2018-12-31T00:16:46.056Z,28.38
2018-12-31T00:19:14.644Z,30.50
2018-12-31T00:21:43.235Z,31.80
2018-12-31T00:24:13.220Z,27.60
2018-12-31T00:26:41.776Z,27.70
2018-12-31T00:29:10.340Z,25.63
2018-12-31T00:31:38.902Z,24.83
2018-12-31T00:34:07.455Z,30.97
2018-12-31T00:36:36.032Z,29.65
2018-12-31T00:39:06.547Z,23.53
2018-12-31T00:41:35.120Z,27.02
2018-12-31T00:44:03.686Z,23.40
2018-12-31T00:46:32.271Z,23.57
2018-12-31T00:49:00.836Z,20.50
2018-12-31T00:51:29.437Z,22.57
2018-12-31T00:53:58.032Z,24.47
2018-12-31T00:56:26.597Z,19.13
2018-12-31T00:58:55.160Z,22.87
2018-12-31T01:01:23.734Z,23.80
2018-12-31T01:03:52.302Z,22.67
2018-12-31T01:06:20.863Z,22.83
2018-12-31T01:08:49.431Z,20.63
2018-12-31T01:11:18.281Z,20.13
2018-12-31T01:13:46.853Z,18.80
2018-12-31T01:16:15.425Z,18.10
2018-12-31T01:18:43.982Z,16.90
2018-12-31T01:21:12.562Z,18.57
2018-12-31T01:23:41.114Z,16.80
2018-12-31T01:26:09.688Z,17.07
2018-12-31T01:28:38.268Z,18.20
2018-12-31T01:31:06.840Z,22.80
2018-12-31T01:33:35.403Z,21.70
2018-12-31T01:36:03.983Z,20.70
2018-12-31T01:38:32.556Z,17.00
2018-12-31T01:41:01.138Z,19.60
2018-12-31T01:43:29.692Z,19.67
2018-12-31T01:45:58.293Z,20.17
2018-12-31T01:48:26.862Z,19.37
2018-12-31T01:50:55.436Z,18.37
2018-12-31T01:53:24.023Z,18.97
2018-12-31T01:55:52.620Z,18.37
2018-12-31T01:58:21.192Z,19.13
2018-12-31T02:00:49.765Z,19.90
2018-12-31T02:03:18.346Z,18.80
2018-12-31T02:05:46.916Z,23.18
2018-12-31T02:08:15.493Z,19.47
2018-12-31T02:10:44.057Z,19.90
2018-12-31T02:13:12.639Z,18.10
2018-12-31T02:15:41.193Z,19.43
2018-12-31T02:18:09.775Z,22.30
2018-12-31T02:20:38.332Z,18.37
2018-12-31T02:23:06.986Z,21.10
2018-12-31T02:25:35.539Z,19.23
2018-12-31T02:28:04.105Z,21.17
2018-12-31T02:30:32.673Z,17.90
2018-12-31T02:33:01.244Z,18.53
2018-12-31T02:35:29.819Z,19.93
2018-12-31T02:37:58.400Z,19.60
2018-12-31T02:40:26.964Z,17.03
2018-12-31T02:42:55.535Z,17.30
2018-12-31T02:45:24.099Z,16.50
2018-12-31T02:47:52.682Z,17.87
2018-12-31T02:50:21.259Z,18.98
2018-12-31T02:52:49.824Z,17.20
2018-12-31T02:55:18.376Z,17.52
2018-12-31T02:57:46.940Z,16.57
2018-12-31T03:00:15.693Z,17.43
2018-12-31T03:02:44.286Z,17.10
2018-12-31T03:05:14.164Z,16.45
2018-12-31T03:07:42.735Z,17.90
2018-12-31T03:10:11.310Z,14.43
2018-12-31T03:12:39.882Z,15.73
2018-12-31T03:15:08.444Z,15.03
2018-12-31T03:17:37.014Z,15.10
2018-12-31T03:20:05.697Z,14.67
2018-12-31T03:22:34.432Z,15.68
2018-12-31T03:25:02.996Z,14.37
2018-12-31T03:27:31.552Z,14.27
2018-12-31T03:30:00.296Z,16.10
2018-12-31T03:32:29.084Z,16.48
2018-12-31T03:34:57.654Z,13.77
2018-12-31T03:37:26.206Z,14.17
2018-12-31T03:39:54.776Z,13.18
2018-12-31T03:42:23.365Z,13.47
2018-12-31T03:44:51.933Z,14.25
2018-12-31T03:47:20.506Z,11.50
2018-12-31T03:49:49.076Z,13.60
2018-12-31T03:52:17.644Z,12.87
2018-12-31T03:54:46.208Z,12.27
2018-12-31T03:57:14.779Z,13.33
2018-12-31T03:59:43.350Z,13.40
2018-12-31T04:02:11.919Z,11.67
2018-12-31T04:04:40.486Z,12.87
2018-12-31T04:07:09.065Z,13.43
2018-12-31T04:09:37.621Z,11.77
2018-12-31T04:12:06.186Z,11.33
2018-12-31T04:14:34.758Z,13.30
2018-12-31T04:17:03.338Z,11.13
2018-12-31T04:19:31.897Z,11.60
2018-12-31T04:22:00.466Z,12.80
2018-12-31T04:24:29.040Z,12.87
2018-12-31T04:26:57.624Z,12.33
2018-12-31T04:29:26.173Z,12.13
2018-12-31T04:31:54.739Z,14.13
2018-12-31T04:34:24.005Z,12.50
2018-12-31T04:36:52.569Z,12.80
2018-12-31T04:39:21.127Z,12.80
2018-12-31T04:41:49.700Z,13.07
2018-12-31T04:44:18.264Z,12.67
2018-12-31T04:46:46.846Z,12.80
2018-12-31T04:49:15.404Z,11.93
2018-12-31T04:51:43.985Z,11.63
2018-12-31T04:54:12.545Z,10.43
2018-12-31T04:56:42.087Z,10.03
2018-12-31T04:59:10.655Z,11.63
2018-12-31T05:01:39.237Z,11.63
2018-12-31T05:04:07.788Z,12.00
2018-12-31T05:06:36.353Z,10.00
2018-12-31T05:09:06.400Z,11.27
2018-12-31T05:11:34.973Z,12.70
2018-12-31T05:14:03.652Z,10.08
2018-12-31T05:16:32.229Z,12.70
2018-12-31T05:19:00.985Z,12.80
2018-12-31T05:21:29.552Z,12.30
2018-12-31T05:23:58.111Z,14.40
2018-12-31T05:26:26.672Z,13.50
2018-12-31T05:28:55.232Z,10.90
2018-12-31T05:31:23.788Z,13.62
2018-12-31T05:33:52.379Z,13.73
2018-12-31T05:36:20.929Z,12.23
2018-12-31T05:38:49.508Z,12.23
2018-12-31T05:41:18.079Z,12.60
2018-12-31T05:43:46.643Z,14.53
2018-12-31T05:46:15.197Z,12.60
2018-12-31T05:48:43.808Z,11.23
2018-12-31T05:51:12.370Z,15.50
2018-12-31T05:53:40.962Z,11.73
2018-12-31T05:56:09.521Z,13.47
2018-12-31T05:58:38.087Z,13.32
2018-12-31T06:01:06.653Z,12.77
2018-12-31T06:03:35.230Z,10.50
2018-12-31T06:06:03.794Z,11.60
2018-12-31T06:08:34.080Z,13.00
2018-12-31T06:11:03.142Z,11.50
2018-12-31T06:13:31.707Z,13.57
2018-12-31T06:16:00.264Z,13.93
2018-12-31T06:18:28.845Z,12.73
2018-12-31T06:20:57.923Z,14.20
2018-12-31T06:23:26.484Z,13.53
2018-12-31T06:25:55.039Z,13.65
2018-12-31T06:28:23.615Z,13.27
2018-12-31T06:30:52.169Z,14.00
2018-12-31T06:33:20.741Z,14.40
2018-12-31T06:35:50.223Z,15.47
2018-12-31T06:38:18.802Z,14.27
2018-12-31T06:40:47.379Z,14.77
2018-12-31T06:43:15.928Z,15.35
2018-12-31T06:45:44.508Z,12.93
2018-12-31T06:48:13.072Z,15.25
2018-12-31T06:50:41.632Z,13.00
2018-12-31T06:53:10.202Z,12.80
2018-12-31T06:55:38.778Z,16.07
2018-12-31T06:58:09.065Z,14.07
2018-12-31T07:00:37.717Z,15.17
2018-12-31T07:03:06.264Z,12.70
2018-12-31T07:05:34.839Z,11.57
2018-12-31T07:08:03.404Z,11.83
2018-12-31T07:10:31.976Z,10.32
2018-12-31T07:13:00.536Z,11.40
2018-12-31T07:15:29.112Z,11.83
2018-12-31T07:17:57.664Z,11.13
2018-12-31T07:20:26.342Z,11.93
2018-12-31T07:22:54.933Z,10.60
2018-12-31T07:25:23.510Z,9.50
2018-12-31T07:27:52.080Z,12.23
2018-12-31T07:30:20.655Z,13.30
2018-12-31T07:32:49.213Z,11.90
2018-12-31T07:35:17.787Z,12.87
2018-12-31T07:37:46.524Z,13.13
2018-12-31T07:40:15.106Z,12.17
2018-12-31T07:42:43.660Z,12.53
2018-12-31T07:45:12.240Z,13.27
2018-12-31T07:47:40.792Z,12.33
2018-12-31T07:50:09.374Z,11.07
2018-12-31T07:52:37.920Z,15.07
2018-12-31T07:55:06.496Z,11.05
2018-12-31T07:57:35.081Z,12.58
2018-12-31T08:00:05.022Z,10.90
2018-12-31T08:02:33.601Z,10.37
2018-12-31T08:05:02.276Z,11.73
2018-12-31T08:07:30.844Z,12.50
2018-12-31T08:09:59.409Z,9.47
2018-12-31T08:12:27.978Z,9.47
2018-12-31T08:14:56.541Z,12.47
2018-12-31T08:17:25.108Z,10.87
2018-12-31T08:19:53.914Z,13.37
2018-12-31T08:22:22.493Z,20.67
2018-12-31T08:24:51.073Z,36.33
2018-12-31T08:27:19.647Z,11.87
2018-12-31T08:29:48.232Z,10.60
2018-12-31T08:32:16.809Z,11.90
2018-12-31T08:34:45.377Z,10.87
2018-12-31T08:37:13.962Z,11.37
2018-12-31T08:39:42.663Z,9.45
2018-12-31T08:42:11.232Z,13.00
2018-12-31T08:44:40.841Z,10.13
2018-12-31T08:47:09.652Z,11.27
2018-12-31T08:49:38.224Z,10.33
2018-12-31T08:52:06.806Z,10.27
2018-12-31T08:54:36.071Z,9.10
2018-12-31T08:57:04.656Z,11.07
2018-12-31T08:59:33.220Z,10.47
2018-12-31T09:02:01.975Z,10.33
2018-12-31T09:04:30.552Z,9.87
2018-12-31T09:06:59.125Z,10.25
2018-12-31T09:09:27.712Z,9.77
2018-12-31T09:11:56.301Z,10.37
2018-12-31T09:14:24.885Z,9.90
2018-12-31T09:16:53.492Z,9.90
2018-12-31T09:19:28.904Z,10.20
2018-12-31T09:21:57.984Z,9.70
2018-12-31T09:24:26.582Z,10.37
2018-12-31T09:26:55.194Z,15.70
2018-12-31T09:29:23.864Z,22.00
2018-12-31T09:31:52.448Z,10.53
2018-12-31T09:34:21.033Z,10.07
2018-12-31T09:36:49.593Z,9.80
2018-12-31T09:39:18.180Z,9.23
2018-12-31T09:41:46.736Z,10.10
2018-12-31T09:44:16.198Z,9.35
2018-12-31T09:46:45.973Z,8.13
2018-12-31T09:49:15.667Z,10.40
2018-12-31T09:51:45.542Z,10.47
2018-12-31T09:54:15.369Z,9.27
2018-12-31T09:56:45.168Z,8.90
2018-12-31T09:59:15.005Z,8.77
2018-12-31T10:01:44.855Z,9.23
2018-12-31T10:04:14.806Z,10.77
2018-12-31T10:06:44.414Z,10.13
2018-12-31T10:09:13.866Z,9.70
2018-12-31T10:11:43.540Z,11.07
2018-12-31T10:14:12.112Z,9.27
2018-12-31T10:16:40.699Z,12.30
2018-12-31T10:19:15.412Z,10.20
2018-12-31T10:21:43.995Z,13.43
2018-12-31T10:24:12.580Z,11.53
2018-12-31T10:26:41.272Z,10.07
2018-12-31T10:29:09.864Z,10.63
2018-12-31T10:31:38.470Z,9.00
2018-12-31T10:34:07.196Z,9.60
2018-12-31T10:36:35.796Z,10.20
2018-12-31T10:39:06.703Z,9.70
2018-12-31T10:41:35.509Z,11.93
2018-12-31T10:44:04.234Z,9.73
2018-12-31T10:46:32.810Z,9.53
2018-12-31T10:49:01.375Z,14.83
2018-12-31T10:51:29.951Z,12.30
2018-12-31T10:53:58.625Z,18.57
2018-12-31T10:56:27.195Z,15.47
2018-12-31T10:58:55.757Z,11.50
2018-12-31T11:01:24.349Z,10.93
2018-12-31T11:03:53.358Z,13.70
2018-12-31T11:06:22.248Z,11.65
2018-12-31T11:08:50.822Z,9.23
2018-12-31T11:11:19.388Z,10.47
2018-12-31T11:13:47.973Z,9.07
2018-12-31T11:16:16.673Z,9.03
2018-12-31T11:18:45.233Z,8.80
2018-12-31T11:21:13.808Z,8.20
2018-12-31T11:23:42.477Z,7.97
2018-12-31T11:26:13.244Z,15.90
2018-12-31T11:28:42.018Z,10.27
2018-12-31T11:31:10.671Z,8.70
2018-12-31T11:33:39.286Z,8.10
2018-12-31T11:36:07.868Z,8.87
2018-12-31T11:38:36.569Z,11.10
2018-12-31T11:41:05.145Z,7.90
2018-12-31T11:43:33.708Z,9.80
2018-12-31T11:46:02.322Z,11.90
2018-12-31T11:48:30.943Z,12.43
2018-12-31T11:50:59.506Z,9.73
2018-12-31T11:53:28.150Z,9.63
2018-12-31T11:55:56.787Z,9.27
2018-12-31T11:58:25.361Z,9.37
2018-12-31T12:00:53.977Z,8.97
2018-12-31T12:03:22.584Z,7.97
2018-12-31T12:05:51.216Z,6.93
2018-12-31T12:08:19.792Z,7.17
2018-12-31T12:10:58.698Z,7.53
2018-12-31T12:13:27.756Z,10.35
2018-12-31T12:15:57.422Z,7.70
2018-12-31T12:18:26.304Z,6.83
2018-12-31T12:20:54.904Z,6.43
2018-12-31T12:23:25.031Z,8.77
2018-12-31T12:25:54.313Z,8.18
2018-12-31T12:28:23.137Z,6.97
2018-12-31T12:30:51.689Z,7.50
2018-12-31T12:33:20.348Z,8.10
2018-12-31T12:35:48.910Z,7.87
2018-12-31T12:38:17.862Z,7.93
2018-12-31T12:40:46.461Z,5.92
2018-12-31T12:43:15.032Z,6.83
2018-12-31T12:45:43.596Z,5.87
2018-12-31T12:48:12.224Z,9.00
2018-12-31T12:50:41.584Z,6.70
2018-12-31T12:53:10.178Z,5.83
2018-12-31T12:55:38.754Z,7.80
2018-12-31T12:58:07.340Z,7.67
2018-12-31T13:00:35.921Z,7.40
2018-12-31T13:03:04.597Z,13.55
2018-12-31T13:05:33.232Z,18.97
2018-12-31T13:08:01.880Z,10.90
2018-12-31T13:10:30.491Z,7.00
2018-12-31T13:12:59.057Z,8.00
2018-12-31T13:15:27.673Z,8.47
2018-12-31T13:17:57.356Z,6.57
2018-12-31T13:20:25.944Z,9.50
2018-12-31T13:22:54.509Z,8.63
2018-12-31T13:25:23.165Z,8.20
2018-12-31T13:27:51.780Z,9.73
2018-12-31T13:30:20.353Z,10.53
2018-12-31T13:32:48.915Z,7.80
2018-12-31T13:35:18.154Z,8.23
2018-12-31T13:37:46.740Z,8.97
2018-12-31T13:40:15.456Z,8.00
2018-12-31T13:42:44.104Z,9.20
2018-12-31T13:45:12.848Z,8.83
2018-12-31T13:47:41.495Z,13.90
2018-12-31T13:50:10.059Z,13.37
2018-12-31T13:52:40.806Z,11.37
2018-12-31T13:55:09.755Z,13.13
2018-12-31T13:57:38.352Z,11.27
2018-12-31T14:00:08.353Z,11.33
2018-12-31T14:02:37.310Z,14.67
2018-12-31T14:05:05.913Z,12.87
2018-12-31T14:07:34.479Z,10.40
2018-12-31T14:10:03.648Z,11.20
2018-12-31T14:12:32.237Z,11.47
2018-12-31T14:15:00.804Z,9.03
2018-12-31T14:17:29.417Z,14.00
2018-12-31T14:19:58.002Z,10.95
2018-12-31T14:22:26.597Z,8.83
2018-12-31T14:24:55.205Z,11.12
2018-12-31T14:27:23.800Z,17.43
2018-12-31T14:29:54.165Z,12.15
2018-12-31T14:32:22.740Z,12.93
2018-12-31T14:34:51.343Z,14.00
2018-12-31T14:37:19.969Z,14.43
2018-12-31T14:39:48.572Z,12.07
2018-12-31T14:42:17.152Z,11.40
2018-12-31T14:44:45.770Z,13.90
2018-12-31T14:47:18.284Z,11.60
2018-12-31T14:49:44.661Z,14.00
2018-12-31T14:52:14.077Z,14.18
2018-12-31T14:54:42.684Z,11.33
2018-12-31T14:57:11.268Z,11.17
2018-12-31T14:59:42.201Z,10.00
2018-12-31T15:02:10.780Z,9.50
2018-12-31T15:04:40.652Z,10.30
2018-12-31T15:07:09.380Z,9.63
2018-12-31T15:09:37.941Z,12.20
2018-12-31T15:12:06.670Z,11.37
2018-12-31T15:14:35.900Z,10.50
2018-12-31T15:17:04.671Z,10.67
2018-12-31T15:19:33.236Z,14.87
2018-12-31T15:22:02.802Z,13.17
2018-12-31T15:24:33.865Z,9.50
2018-12-31T15:27:02.472Z,11.90
2018-12-31T15:29:31.164Z,12.00
2018-12-31T15:31:59.754Z,13.27
2018-12-31T15:34:28.318Z,17.10
2018-12-31T15:36:56.888Z,14.57
2018-12-31T15:39:25.482Z,16.43
2018-12-31T15:41:54.065Z,16.33
2018-12-31T15:44:22.750Z,17.00
2018-12-31T15:46:51.359Z,16.43
2018-12-31T15:49:19.928Z,15.47
2018-12-31T15:51:48.515Z,14.17
2018-12-31T15:54:23.437Z,17.55
2018-12-31T15:56:52.381Z,15.07
2018-12-31T15:59:20.946Z,19.67
2018-12-31T16:01:49.514Z,12.90
2018-12-31T16:04:18.101Z,13.87
2018-12-31T16:06:46.692Z,14.53
2018-12-31T16:09:15.282Z,14.68
2018-12-31T16:11:43.862Z,11.60
2018-12-31T16:14:12.518Z,13.87
2018-12-31T16:16:41.094Z,13.37
2018-12-31T16:19:10.194Z,14.43
2018-12-31T16:21:38.804Z,15.10
2018-12-31T16:24:07.413Z,14.13
2018-12-31T16:26:35.985Z,19.17
2018-12-31T16:29:04.643Z,24.47
2018-12-31T16:31:33.222Z,24.55
2018-12-31T16:34:01.805Z,23.70
2018-12-31T16:36:30.480Z,23.63
2018-12-31T16:38:59.200Z,19.85
2018-12-31T16:41:28.381Z,22.37
2018-12-31T16:43:57.215Z,22.07
2018-12-31T16:46:25.836Z,24.30
2018-12-31T16:48:54.688Z,21.83
2018-12-31T16:51:23.316Z,32.40
2018-12-31T16:53:51.914Z,19.63
2018-12-31T16:56:20.512Z,32.27
2018-12-31T16:58:49.124Z,30.33
2018-12-31T17:01:18.268Z,43.93
2018-12-31T17:03:46.879Z,29.97
2018-12-31T17:06:15.444Z,30.07
2018-12-31T17:08:44.045Z,44.97
2018-12-31T17:11:12.616Z,51.10
2018-12-31T17:13:41.218Z,35.30
2018-12-31T17:16:09.786Z,25.85
2018-12-31T17:18:38.363Z,21.50
2018-12-31T17:21:06.940Z,23.62
2018-12-31T17:23:35.519Z,25.30
2018-12-31T17:26:05.121Z,27.82
2018-12-31T17:28:33.749Z,29.27
2018-12-31T17:31:04.608Z,28.83
2018-12-31T17:33:33.208Z,27.83
2018-12-31T17:36:01.802Z,27.83
2018-12-31T17:38:30.380Z,26.53
2018-12-31T17:40:59.140Z,26.13
2018-12-31T17:43:27.697Z,28.40
2018-12-31T17:45:56.277Z,29.97
2018-12-31T17:48:24.832Z,28.47
2018-12-31T17:50:53.413Z,28.47
2018-12-31T17:53:22.420Z,30.80
2018-12-31T17:55:51.112Z,27.83
2018-12-31T17:58:19.672Z,29.03
2018-12-31T18:00:48.244Z,32.17
2018-12-31T18:03:16.816Z,27.67
2018-12-31T18:05:45.373Z,28.73
2018-12-31T18:08:13.951Z,31.37
2018-12-31T18:10:42.578Z,30.97
2018-12-31T18:13:13.293Z,31.27
2018-12-31T18:15:42.075Z,29.47
2018-12-31T18:18:10.682Z,34.07
2018-12-31T18:20:40.354Z,33.50
2018-12-31T18:23:08.888Z,33.20
2018-12-31T18:25:38.126Z,33.90
2018-12-31T18:28:07.265Z,33.83
2018-12-31T18:30:36.102Z,34.13
2018-12-31T18:33:04.914Z,33.75
2018-12-31T18:35:33.520Z,35.17
2018-12-31T18:38:02.084Z,30.72
2018-12-31T18:40:30.661Z,34.00
2018-12-31T18:42:59.332Z,32.78
2018-12-31T18:45:27.915Z,32.10
2018-12-31T18:47:57.290Z,39.40
2018-12-31T18:50:31.857Z,36.70
2018-12-31T18:53:00.528Z,35.83
2018-12-31T18:55:29.088Z,36.10
2018-12-31T18:57:57.670Z,35.60
2018-12-31T19:00:26.230Z,38.53
2018-12-31T19:02:54.809Z,36.00
2018-12-31T19:05:23.555Z,35.10
2018-12-31T19:07:52.121Z,34.67
2018-12-31T19:10:20.714Z,33.57
2018-12-31T19:12:49.295Z,34.63
2018-12-31T19:15:19.944Z,36.80
2018-12-31T19:17:48.514Z,33.10
2018-12-31T19:20:17.088Z,34.93
2018-12-31T19:22:45.945Z,38.60
2018-12-31T19:25:14.508Z,34.37
2018-12-31T19:27:43.086Z,33.70
2018-12-31T19:30:11.659Z,32.87
2018-12-31T19:32:40.241Z,31.30
2018-12-31T19:35:09.188Z,30.60
2018-12-31T19:37:38.317Z,32.03
2018-12-31T19:40:06.912Z,31.73
2018-12-31T19:42:35.513Z,29.43
2018-12-31T19:45:04.280Z,31.48
2018-12-31T19:47:32.841Z,30.97
2018-12-31T19:50:01.425Z,29.60
2018-12-31T19:52:30.030Z,26.90
2018-12-31T19:54:58.687Z,26.15
2018-12-31T19:57:27.370Z,27.30
2018-12-31T19:59:56.180Z,25.37
2018-12-31T20:02:24.756Z,25.23
2018-12-31T20:04:53.664Z,25.03
2018-12-31T20:07:22.264Z,23.53
2018-12-31T20:09:50.831Z,23.63
2018-12-31T20:12:19.449Z,25.43
2018-12-31T20:14:48.588Z,22.90
2018-12-31T20:17:17.153Z,29.10
2018-12-31T20:19:45.765Z,23.70
2018-12-31T20:22:14.346Z,25.20
2018-12-31T20:24:42.933Z,25.30
2018-12-31T20:27:11.497Z,22.07
2018-12-31T20:29:41.303Z,23.60
2018-12-31T20:32:09.916Z,23.97
2018-12-31T20:34:38.476Z,21.10
2018-12-31T20:37:07.044Z,20.37
2018-12-31T20:39:35.628Z,21.52
2018-12-31T20:42:04.680Z,20.97
2018-12-31T20:44:34.170Z,20.87
2018-12-31T20:47:02.741Z,20.43
2018-12-31T20:49:31.342Z,19.60
2018-12-31T20:51:59.930Z,18.27
2018-12-31T20:54:28.506Z,19.47
2018-12-31T20:56:57.064Z,19.10
2018-12-31T20:59:25.656Z,14.73
2018-12-31T21:01:54.238Z,17.47
2018-12-31T21:04:22.808Z,17.27
2018-12-31T21:06:53.591Z,16.93
2018-12-31T21:09:22.382Z,18.43
2018-12-31T21:11:51.245Z,17.60
2018-12-31T21:14:19.832Z,16.60
2018-12-31T21:16:48.376Z,17.23
2018-12-31T21:19:16.950Z,20.83
2018-12-31T21:21:45.524Z,20.10
2018-12-31T21:24:14.104Z,21.63
2018-12-31T21:26:42.704Z,23.97
2018-12-31T21:29:11.267Z,19.35
2018-12-31T21:31:39.816Z,23.10
2018-12-31T21:34:09.146Z,22.40
2018-12-31T21:36:37.722Z,20.17
2018-12-31T21:39:07.348Z,20.17
2018-12-31T21:41:35.932Z,24.60
2018-12-31T21:44:04.500Z,24.27
2018-12-31T21:46:33.083Z,20.08
2018-12-31T21:49:02.046Z,18.97
2018-12-31T21:51:31.536Z,19.62
2018-12-31T21:54:04.116Z,21.60
2018-12-31T21:56:35.889Z,41.92
2018-12-31T21:59:09.575Z,27.77
2018-12-31T22:01:38.276Z,23.33
2018-12-31T22:04:06.840Z,21.77
2018-12-31T22:06:35.400Z,21.57
2018-12-31T22:09:04.742Z,21.67
2018-12-31T22:11:34.239Z,23.37
2018-12-31T22:14:02.849Z,24.40
2018-12-31T22:16:31.424Z,22.57
2018-12-31T22:19:00.074Z,23.37
2018-12-31T22:21:29.327Z,23.03
2018-12-31T22:23:58.300Z,23.73
2018-12-31T22:26:27.252Z,22.50
2018-12-31T22:28:55.813Z,29.07
2018-12-31T22:31:24.394Z,24.80
2018-12-31T22:33:53.346Z,28.17
2018-12-31T22:36:21.913Z,26.00
2018-12-31T22:38:51.823Z,27.97
2018-12-31T22:41:20.471Z,26.20
2018-12-31T22:43:49.066Z,27.53
2018-12-31T22:46:17.662Z,28.75
2018-12-31T22:48:46.224Z,28.83
2018-12-31T22:51:14.884Z,25.37
2018-12-31T22:53:43.469Z,27.70
2018-12-31T22:56:12.049Z,32.13
2018-12-31T22:58:40.636Z,36.77
2018-12-31T23:01:22.431Z,29.43
2018-12-31T23:03:54.266Z,30.83
2018-12-31T23:06:25.524Z,80.97
2018-12-31T23:08:58.814Z,38.83
2018-12-31T23:11:30.525Z,34.40
2018-12-31T23:13:59.617Z,40.23
2018-12-31T23:16:36.433Z,44.93
2018-12-31T23:19:05.575Z,40.57
2018-12-31T23:21:34.580Z,68.60
2018-12-31T23:24:03.950Z,95.27
2018-12-31T23:26:37.741Z,172.77
2018-12-31T23:29:08.103Z,232.17
2018-12-31T23:31:42.103Z,162.13
2018-12-31T23:34:13.108Z,188.70
2018-12-31T23:36:42.472Z,242.55
2018-12-31T23:39:14.946Z,264.50
2018-12-31T23:41:43.881Z,243.33
2018-12-31T23:44:14.903Z,241.60
2018-12-31T23:46:44.138Z,248.70
2018-12-31T23:49:19.979Z,259.17
2018-12-31T23:51:50.358Z,255.60
2018-12-31T23:54:22.363Z,209.93
2018-12-31T23:56:51.652Z,202.00
2018-12-31T23:59:24.481Z,228.27
